메인 페이지
METAR-TAF:

METAR-TAF

공항 :

레오폴 세다르 상고르 국제공항

다카르, 세네갈

위도: 14-44N, 경도: 017-30W, 고도: 27m

현재 날씨관측

예보는 40분 전, 22:00시(UTC)에 발표되었습니다.
북북서6kt
온도 23°C
습도 78%
기압 1017 hPa
시정: 8000m
고도 1500ft 상공 구름 보통

METAR: GOOY 182200Z 34006KT 8000 SCT015 23/19 Q1017

시각: 22:40 (22:40 UTC)

예보

예보는 5 시간 10분 전, 17:30시(UTC)에 발표되었습니다.
예보 대상 시간: 18일 18시부터 19일 24시까지 (UTC)
북북서8kt
시정 10km 이상
고도 1300ft 상공 구름 보통

TAF: GOOY 181730Z 1818/1924 34008KT 9999 SCT013

4,000개 이상의 공항 관측 자료 및 예보 (METAR 및 TAF 보고).

지도상에서 검색 가능한 기상관측소가 노란 점과 빨간 점으로 표시되어 있습니다.

기상관측소 명을 보려면 표시 위로 마우스를 이동하세요.

날씨 관측과 예보를 보려면 클릭하세요.

지도 변경 : 확대하려면 엑스 표시가 있는 녹색 버튼, 축소하려면 빼기 표시가 있는 녹색 버튼, 다음 페이지의 지도를 보려면 녹색 화살표를 클릭하세요.


METAR-TAF: